Time;durP1;ratioP1;P1;durP2;ratioP2;P2;SDS_P1;SDS_P2;PMS_P1;PMS_P2;Temp;Humidity;BMP_temperature;BMP_pressure;BME280_temperature;BME280_humidity;BME280_pressure;Samples;Min_cycle;Max_cycle;Signal;HPM_P1;HPM_P2
2021/04/06 00:01:46;;;;;;;5.70;3.57;;;;;;;3.57;58.74;98267.22;1728691;80;22128;-61
2021/04/06 00:04:17;;;;;;;10.50;3.43;;;;;;;3.57;58.83;98274.73;1733145;81;21234;-61
2021/04/06 00:06:49;;;;;;;7.07;3.20;;;;;;;3.56;58.90;98276.13;1740159;80;21146;-58
2021/04/06 00:09:19;;;;;;;7.57;3.80;;;;;;;3.54;58.99;98276.19;1741915;80;21131;-61
2021/04/06 00:11:47;;;;;;;7.43;4.03;;;;;;;3.54;59.08;98276.19;1739628;80;21369;-61
2021/04/06 00:14:15;;;;;;;10.83;4.17;;;;;;;3.54;59.21;98274.86;1737970;80;21132;-61
2021/04/06 00:16:42;;;;;;;6.37;3.70;;;;;;;3.53;59.27;98274.45;1721859;80;21111;-61
2021/04/06 00:19:11;;;;;;;6.13;3.73;;;;;;;3.53;59.41;98274.92;1717358;80;21115;-61
2021/04/06 00:21:38;;;;;;;8.93;4.40;;;;;;;3.52;59.48;98274.05;1741274;80;21140;-62
2021/04/06 00:24:07;;;;;;;9.13;3.77;;;;;;;3.51;59.57;98270.99;1761098;79;22006;-61
2021/04/06 00:26:49;;;;;;;7.33;4.47;;;;;;;3.51;59.61;98270.13;1724651;81;21159;-61
2021/04/06 00:29:19;;;;;;;7.07;3.50;;;;;;;3.51;59.68;98260.81;1742303;80;21132;-61
2021/04/06 00:31:48;;;;;;;7.63;5.13;;;;;;;3.52;59.82;98265.20;1727946;80;21132;-56
2021/04/06 00:34:16;;;;;;;4.73;2.70;;;;;;;3.50;59.88;98254.63;1710719;81;21145;-58
2021/04/06 00:36:44;;;;;;;4.90;3.93;;;;;;;3.50;59.93;98247.11;1739503;80;21376;-61
2021/04/06 00:39:11;;;;;;;8.50;4.47;;;;;;;3.49;60.03;98252.89;1740871;80;21864;-61
2021/04/06 00:41:40;;;;;;;10.97;4.13;;;;;;;3.48;60.06;98259.17;1740681;80;21377;-63
2021/04/06 00:44:13;;;;;;;8.50;4.43;;;;;;;3.47;60.16;98255.24;1739497;80;21667;-58
2021/04/06 00:46:44;;;;;;;6.00;3.60;;;;;;;3.46;60.19;98245.06;1741340;80;21842;-61
2021/04/06 00:49:13;;;;;;;6.93;4.67;;;;;;;3.45;60.31;98243.80;1740571;80;22290;-62
2021/04/06 00:51:41;;;;;;;9.83;4.13;;;;;;;3.44;60.31;98250.91;1721296;80;22093;-61
2021/04/06 00:54:14;;;;;;;9.50;4.70;;;;;;;3.42;60.43;98253.63;1741751;80;21119;-59
2021/04/06 00:56:42;;;;;;;7.87;4.90;;;;;;;3.41;60.49;98253.69;1694920;80;21104;-61
2021/04/06 00:59:18;;;;;;;10.20;3.40;;;;;;;3.40;60.56;98249.33;1736841;80;21102;-62
2021/04/06 01:01:48;;;;;;;9.30;5.10;;;;;;;3.38;60.66;98255.17;1722963;80;21724;-62
2021/04/06 01:04:18;;;;;;;5.77;3.30;;;;;;;3.34;60.80;98255.76;1724622;80;21159;-57
2021/04/06 01:07:16;;;;;;;8.03;4.27;;;;;;;3.32;60.96;98254.08;1721871;80;21219;-61
2021/04/06 01:09:51;;;;;;;8.33;4.37;;;;;;;3.29;61.05;98251.58;1723833;80;21770;-62
2021/04/06 01:12:23;;;;;;;7.57;3.97;;;;;;;3.26;61.18;98253.03;1698379;81;21435;-55
2021/04/06 01:14:53;;;;;;;8.93;4.60;;;;;;;3.24;61.28;98246.44;1724129;80;21281;-56
2021/04/06 01:17:31;;;;;;;8.33;5.37;;;;;;;3.21;61.37;98255.90;1723451;80;21821;-57
2021/04/06 01:20:13;;;;;;;8.93;4.30;;;;;;;3.20;61.42;98252.83;1724034;80;21212;-58
2021/04/06 01:22:40;;;;;;;13.07;6.10;;;;;;;3.21;61.50;98246.59;1723083;80;21852;-55
2021/04/06 01:25:18;;;;;;;8.67;4.57;;;;;;;3.20;61.58;98247.98;1727341;81;21243;-56
2021/04/06 01:27:48;;;;;;;12.70;5.33;;;;;;;3.19;61.61;98247.58;1721602;80;22300;-57
2021/04/06 01:30:22;;;;;;;11.50;5.27;;;;;;;3.16;61.66;98243.24;1727320;81;21162;-60
2021/04/06 01:32:46;;;;;;;12.80;6.40;;;;;;;3.16;61.77;98243.70;1725074;80;21571;-58
2021/04/06 01:35:14;;;;;;;10.97;5.33;;;;;;;3.16;61.81;98243.70;1726251;81;21606;-57
2021/04/06 01:37:41;;;;;;;9.17;5.60;;;;;;;3.13;61.89;98235.42;1723305;80;22248;-60
2021/04/06 01:40:12;;;;;;;8.93;5.43;;;;;;;3.13;61.97;98245.19;1725714;80;21375;-59
2021/04/06 01:42:41;;;;;;;12.73;6.00;;;;;;;3.12;61.97;98247.44;1723902;81;21219;-59
2021/04/06 01:45:10;;;;;;;12.43;5.93;;;;;;;3.11;62.02;98243.91;1724127;81;21187;-59
2021/04/06 01:47:38;;;;;;;12.33;6.33;;;;;;;3.11;62.05;98255.87;1724622;81;21160;-59
2021/04/06 01:50:06;;;;;;;8.23;5.27;;;;;;;3.10;62.10;98249.29;1724331;81;21238;-56
2021/04/06 01:52:34;;;;;;;15.83;6.27;;;;;;;3.10;62.18;98252.81;1726514;80;21783;-57
2021/04/06 01:55:06;;;;;;;10.47;6.37;;;;;;;3.10;62.19;98247.50;1725026;81;21148;-60
2021/04/06 01:57:35;;;;;;;15.37;6.70;;;;;;;3.10;62.26;98249.29;1727526;81;21160;-58
2021/04/06 02:00:10;;;;;;;16.23;9.37;;;;;;;3.10;62.26;98253.28;1722082;80;22452;-57
2021/04/06 02:02:31;;;;;;;10.57;7.67;;;;;;;3.10;62.30;98248.83;1719058;80;21188;-58
2021/04/06 02:05:02;;;;;;;12.30;7.40;;;;;;;3.09;62.34;98246.23;1723801;80;22912;-59
2021/04/06 02:07:33;;;;;;;10.13;7.17;;;;;;;3.09;62.34;98238.25;1726018;80;21192;-59
2021/04/06 02:09:59;;;;;;;10.43;6.47;;;;;;;3.07;62.38;98236.98;1723763;80;21222;-59
2021/04/06 02:12:26;;;;;;;12.20;6.47;;;;;;;3.08;62.38;98236.52;1724039;80;21125;-58
2021/04/06 02:14:58;;;;;;;8.63;5.27;;;;;;;3.07;62.42;98242.30;1726569;80;21140;-57
2021/04/06 02:17:27;;;;;;;8.10;5.12;;;;;;;3.08;62.43;98245.36;1721751;80;21899;-58
2021/04/06 02:19:54;;;;;;;12.73;5.30;;;;;;;3.08;62.44;98244.03;1726008;80;21567;-56
2021/04/06 02:22:22;;;;;;;10.37;5.70;;;;;;;3.08;62.44;98237.38;1723910;80;21194;-58
2021/04/06 02:24:51;;;;;;;8.60;5.80;;;;;;;3.09;62.51;98242.23;1713591;81;21276;-59
2021/04/06 02:27:26;;;;;;;10.17;4.97;;;;;;;3.08;62.54;98236.52;1717821;81;21124;-57
2021/04/06 02:29:56;;;;;;;7.30;4.17;;;;;;;3.07;62.60;98228.14;1715172;81;21427;-59
2021/04/06 02:32:28;;;;;;;7.63;5.07;;;;;;;3.06;62.65;98231.30;1729393;80;21222;-60
2021/04/06 02:34:57;;;;;;;10.97;4.97;;;;;;;3.06;62.66;98225.11;1728950;80;21225;-57
2021/04/06 02:37:32;;;;;;;11.47;5.00;;;;;;;3.04;62.70;98227.36;1691169;81;21169;-57
2021/04/06 02:40:02;;;;;;;9.27;6.20;;;;;;;3.04;62.79;98234.01;1727059;80;21389;-56
2021/04/06 02:42:41;;;;;;;9.03;4.50;;;;;;;3.04;62.77;98227.36;1723456;80;21263;-59
2021/04/06 02:45:22;;;;;;;8.67;5.50;;;;;;;3.04;62.78;98230.48;1721461;80;21212;-59
2021/04/06 02:48:05;;;;;;;11.53;4.83;;;;;;;3.03;62.79;98234.94;1722683;80;21164;-58
2021/04/06 02:50:34;;;;;;;9.77;5.47;;;;;;;3.04;62.84;98235.80;1723399;80;21156;-57
2021/04/06 02:53:09;;;;;;;11.33;4.57;;;;;;;3.04;62.88;98232.69;1726501;80;21480;-59
2021/04/06 02:55:38;;;;;;;10.63;5.10;;;;;;;3.06;62.89;98231.75;1723192;80;21191;-56
2021/04/06 02:58:15;;;;;;;8.27;4.37;;;;;;;3.05;62.82;98224.25;1712697;81;21531;-58
2021/04/06 03:00:43;;;;;;;11.97;6.27;;;;;;;3.05;62.90;98222.91;1734174;79;21198;-58
2021/04/06 03:03:23;;;;;;;9.73;6.23;;;;;;;3.06;62.90;98227.30;1755533;79;21126;-59
2021/04/06 03:06:01;;;;;;;11.60;5.87;;;;;;;3.07;62.94;98229.47;1753794;79;21644;-59
2021/04/06 03:08:31;;;;;;;8.17;6.33;;;;;;;3.06;62.88;98225.98;1755199;79;21047;-58
2021/04/06 03:10:58;;;;;;;8.17;5.10;;;;;;;3.07;62.87;98233.45;1756830;79;21752;-57
2021/04/06 03:13:26;;;;;;;8.93;5.57;;;;;;;3.07;62.88;98233.45;1757828;79;21162;-57
2021/04/06 03:15:55;;;;;;;10.03;5.63;;;;;;;3.07;62.86;98236.11;1756402;79;21130;-56
2021/04/06 03:21:22;;;;;;;7.73;4.67;;;;;;;3.10;62.91;98243.97;1867072;75;26859;-56
2021/04/06 03:23:50;;;;;;;7.97;5.50;;;;;;;3.07;62.90;98248.08;1809005;77;22309;-58
2021/04/06 03:26:18;;;;;;;11.23;4.63;;;;;;;3.06;62.87;98243.26;1791240;77;21372;-58
2021/04/06 03:28:45;;;;;;;9.63;5.93;;;;;;;3.07;62.85;98245.42;1777798;77;21752;-57
2021/04/06 03:31:17;;;;;;;10.93;5.70;;;;;;;3.07;62.83;98244.95;1808979;78;20940;-58
2021/04/06 03:33:47;;;;;;;5.67;4.23;;;;;;;3.09;62.83;98249.75;1784721;78;21429;-56
2021/04/06 03:36:28;;;;;;;8.03;4.97;;;;;;;3.10;62.80;98242.18;1777787;79;21884;-58
2021/04/06 03:39:00;;;;;;;6.97;5.07;;;;;;;3.11;62.75;98245.24;1779925;79;22925;-59
2021/04/06 03:41:29;;;;;;;12.17;5.17;;;;;;;3.14;62.68;98244.26;1771617;79;20989;-59
2021/04/06 03:44:07;;;;;;;11.17;4.90;;;;;;;3.15;62.68;98249.98;1745546;79;21435;-57
2021/04/06 03:46:36;;;;;;;7.40;5.37;;;;;;;3.16;62.68;98246.36;1763410;78;21103;-57
2021/04/06 03:52:02;;;;;;;10.73;5.40;;;;;;;3.25;62.60;98245.98;1861067;74;26838;-57
2021/04/06 03:54:43;;;;;;;11.13;7.50;;;;;;;3.23;62.54;98254.02;1841256;75;20971;-59
2021/04/06 03:57:36;;;;;;;9.60;6.20;;;;;;;3.25;62.53;98258.81;1780513;78;22327;-58
2021/04/06 04:00:00;;;;;;;8.63;4.03;;;;;;;3.28;62.48;98254.70;1800320;77;21668;-59
2021/04/06 04:02:30;;;;;;;8.10;4.87;;;;;;;3.30;62.45;98250.66;1764670;78;22352;-59
2021/04/06 04:04:59;;;;;;;5.50;3.77;;;;;;;3.32;62.42;98243.45;1800912;77;21036;-57
2021/04/06 04:07:26;;;;;;;6.80;4.33;;;;;;;3.34;62.39;98241.13;1773596;78;21165;-58
2021/04/06 04:09:53;;;;;;;9.20;5.00;;;;;;;3.35;62.36;98241.53;1769724;78;22318;-58
2021/04/06 04:12:20;;;;;;;9.63;5.73;;;;;;;3.36;62.29;98246.39;1774704;78;22411;-56
2021/04/06 04:14:48;;;;;;;12.70;5.80;;;;;;;3.38;62.28;98240.55;1770248;78;21440;-59
2021/04/06 04:17:15;;;;;;;11.93;5.00;;;;;;;3.40;62.23;98239.52;1773375;78;21182;-58
2021/04/06 04:19:42;;;;;;;7.97;5.53;;;;;;;3.43;62.20;98239.41;1770356;78;21226;-58
2021/04/06 04:22:09;;;;;;;10.63;6.20;;;;;;;3.45;62.09;98246.00;1773589;78;21388;-58
2021/04/06 04:24:37;;;;;;;8.60;4.70;;;;;;;3.48;62.09;98243.22;1774082;78;21546;-57
2021/04/06 04:27:04;;;;;;;7.83;4.80;;;;;;;3.51;62.00;98241.73;1771985;78;21149;-57
2021/04/06 04:29:32;;;;;;;7.23;5.00;;;;;;;3.53;61.94;98245.19;1775687;78;21120;-56
2021/04/06 04:31:59;;;;;;;8.17;5.07;;;;;;;3.56;61.94;98248.19;1777691;78;21779;-57
2021/04/06 04:34:26;;;;;;;6.93;3.70;;;;;;;3.60;61.79;98253.77;1774991;78;21043;-59
2021/04/06 04:36:54;;;;;;;9.60;4.63;;;;;;;3.61;61.78;98249.70;1744608;78;21428;-59
2021/04/06 04:39:21;;;;;;;6.77;5.13;;;;;;;3.62;61.78;98252.77;1774828;78;21177;-58
2021/04/06 04:41:51;;;;;;;9.30;4.10;;;;;;;3.65;61.74;98259.30;1772442;78;21402;-57
2021/04/06 04:44:19;;;;;;;6.80;4.53;;;;;;;3.69;61.58;98260.88;1798851;77;21577;-59
2021/04/06 04:46:46;;;;;;;8.70;5.80;;;;;;;3.74;61.50;98259.36;1801137;77;22591;-59
2021/04/06 04:49:13;;;;;;;13.70;8.27;;;;;;;3.77;61.45;98257.88;1801460;77;21162;-56
2021/04/06 04:51:40;;;;;;;16.87;10.87;;;;;;;3.81;61.29;98256.82;1798228;77;21186;-58
2021/04/06 04:54:08;;;;;;;16.70;11.37;;;;;;;3.85;61.13;98257.06;1794367;77;21139;-58
2021/04/06 04:56:35;;;;;;;17.23;10.43;;;;;;;3.88;61.03;98253.41;1793289;77;21175;-59
2021/04/06 04:59:02;;;;;;;17.83;9.43;;;;;;;3.92;60.97;98262.50;1794601;77;21757;-60
2021/04/06 05:01:31;;;;;;;14.43;9.63;;;;;;;3.96;60.92;98264.58;1797509;77;21411;-56
2021/04/06 05:03:58;;;;;;;13.97;9.23;;;;;;;3.99;60.75;98264.45;1793930;77;21723;-56
2021/04/06 05:06:25;;;;;;;11.23;8.60;;;;;;;4.04;60.69;98258.44;1777031;79;21259;-58
2021/04/06 05:08:53;;;;;;;13.83;8.53;;;;;;;4.09;60.64;98254.61;1800299;78;21779;-57
2021/04/06 05:11:20;;;;;;;9.40;6.67;;;;;;;4.15;60.46;98258.81;1798715;77;21867;-54
2021/04/06 05:13:49;;;;;;;12.03;5.97;;;;;;;4.22;60.30;98252.73;1765337;80;22532;-57
2021/04/06 05:16:16;;;;;;;8.70;5.90;;;;;;;4.28;60.17;98253.30;1772875;77;21168;-56
2021/04/06 05:18:43;;;;;;;11.30;6.93;;;;;;;4.36;60.02;98255.60;1791073;78;21533;-57
2021/04/06 05:21:10;;;;;;;12.73;6.03;;;;;;;4.43;59.84;98250.38;1766190;79;21167;-59
2021/04/06 05:23:38;;;;;;;9.90;5.90;;;;;;;4.49;59.68;98248.31;1758794;80;21756;-58
2021/04/06 05:26:05;;;;;;;12.97;6.63;;;;;;;4.58;59.48;98245.67;1793055;77;21237;-59
2021/04/06 05:28:34;;;;;;;10.57;6.63;;;;;;;4.66;59.32;98245.30;1761907;80;21203;-58
2021/04/06 05:31:02;;;;;;;11.63;7.37;;;;;;;4.75;59.16;98256.86;1795783;77;21097;-59
2021/04/06 05:33:30;;;;;;;10.13;7.00;;;;;;;4.85;59.02;98255.44;1774359;79;21508;-57
2021/04/06 05:35:57;;;;;;;13.20;7.50;;;;;;;4.94;58.78;98253.19;1793035;77;21383;-56
2021/04/06 05:38:24;;;;;;;21.00;6.80;;;;;;;5.06;58.47;98253.53;1764162;78;21250;-57
2021/04/06 05:40:52;;;;;;;19.03;8.83;;;;;;;5.18;58.10;98252.47;1775719;79;21194;-58
2021/04/06 05:43:19;;;;;;;17.63;10.53;;;;;;;5.31;57.80;98250.03;1780392;78;21143;-57
2021/04/06 05:45:53;;;;;;;9.07;7.20;;;;;;;5.44;57.59;98252.95;1796287;77;21092;-56
2021/04/06 05:48:22;;;;;;;9.58;6.00;;;;;;;5.57;57.14;98249.55;1763339;79;22724;-55
2021/04/06 05:50:52;;;;;;;9.37;5.53;;;;;;;5.73;56.66;98250.95;1764794;80;21146;-58
2021/04/06 05:53:21;;;;;;;9.47;5.70;;;;;;;5.89;56.43;98245.22;1757731;80;21173;-58
2021/04/06 05:55:49;;;;;;;8.90;5.73;;;;;;;6.05;56.12;98242.59;1756060;80;21119;-58
2021/04/06 05:58:16;;;;;;;8.27;4.70;;;;;;;6.21;55.38;98254.67;1755724;80;21481;-58
2021/04/06 06:00:44;;;;;;;8.53;5.77;;;;;;;6.34;55.06;98255.24;1763621;80;21461;-58
2021/04/06 06:03:11;;;;;;;7.30;4.73;;;;;;;6.50;54.72;98252.58;1758234;80;21790;-56
2021/04/06 06:05:41;;;;;;;6.90;4.83;;;;;;;6.63;54.42;98246.09;1758863;80;21601;-58
2021/04/06 06:08:14;;;;;;;7.60;5.50;;;;;;;6.77;54.14;98258.20;1758846;80;21473;-58
2021/04/06 06:10:40;;;;;;;7.33;5.33;;;;;;;6.92;53.99;98256.45;1762176;80;21195;-57
2021/04/06 06:13:20;;;;;;;8.47;5.73;;;;;;;7.05;53.04;98258.84;1761661;80;21368;-56
2021/04/06 06:16:13;;;;;;;7.87;5.60;;;;;;;7.15;52.87;98256.85;1755856;80;21099;-57
2021/04/06 06:19:02;;;;;;;7.63;4.30;;;;;;;7.29;52.58;98256.55;1761679;80;21673;-57
2021/04/06 06:21:49;;;;;;;34.57;6.83;;;;;;;7.43;52.28;98252.09;1695972;80;21076;-57
2021/04/06 06:24:33;;;;;;;13.20;5.90;;;;;;;7.57;52.28;98249.44;1762281;80;21844;-57
2021/04/06 06:27:01;;;;;;;6.90;4.78;;;;;;;7.71;51.75;98252.66;1760123;80;21435;-57
2021/04/06 06:29:34;;;;;;;6.63;5.10;;;;;;;7.86;51.66;98258.89;1758805;80;22005;-56
2021/04/06 06:32:01;;;;;;;9.40;6.00;;;;;;;7.98;51.33;98259.02;1763479;80;21080;-57
2021/04/06 06:34:35;;;;;;;13.53;4.30;;;;;;;8.11;50.85;98268.48;1760167;80;21569;-56
2021/04/06 06:37:16;;;;;;;;;;;;;;;8.23;50.26;98266.88;1763037;80;21605;-57
2021/04/06 06:40:00;;;;;;;7.17;3.73;;;;;;;8.33;50.05;98259.55;1759723;80;22131;-56
2021/04/06 06:42:35;;;;;;;6.17;5.37;;;;;;;8.46;50.00;98259.62;1759660;80;21627;-58
2021/04/06 06:45:07;;;;;;;8.17;6.73;;;;;;;8.58;49.43;98262.87;1756809;80;21118;-58
2021/04/06 06:47:35;;;;;;;11.63;7.20;;;;;;;8.68;49.13;98259.09;1755269;80;21087;-55
2021/04/06 06:50:11;;;;;;;9.57;7.87;;;;;;;8.78;48.61;98255.34;1760090;80;21170;-57
2021/04/06 06:52:39;;;;;;;7.23;5.53;;;;;;;8.85;48.37;98261.56;1774719;79;22277;-57
2021/04/06 06:55:18;;;;;;;8.00;6.10;;;;;;;8.95;48.25;98256.45;1775311;78;21126;-58
2021/04/06 06:57:47;;;;;;;6.13;3.97;;;;;;;9.04;48.49;98258.55;1780489;79;21131;-55
2021/04/06 07:00:18;;;;;;;15.97;7.90;;;;;;;9.14;47.90;98261.48;1776654;78;21209;-57
2021/04/06 07:02:46;;;;;;;10.97;6.33;;;;;;;9.22;46.98;98263.19;1779770;78;21174;-56
2021/04/06 07:05:21;;;;;;;7.53;5.20;;;;;;;9.28;46.97;98258.73;1779659;78;21400;-58
2021/04/06 07:08:02;;;;;;;12.20;5.77;;;;;;;9.34;46.97;98267.75;1776478;79;21119;-57
2021/04/06 07:10:43;;;;;;;10.10;5.73;;;;;;;9.42;46.68;98254.67;1776561;78;21607;-55
2021/04/06 07:13:20;;;;;;;6.10;4.23;;;;;;;9.50;46.70;98246.95;1776228;78;21095;-58
2021/04/06 07:15:49;;;;;;;5.87;3.73;;;;;;;9.60;46.41;98248.55;1786160;78;21428;-58
2021/04/06 07:18:21;;;;;;;5.47;3.67;;;;;;;9.69;45.88;98260.01;1778213;78;21454;-60
2021/04/06 07:21:01;;;;;;;8.57;3.20;;;;;;;9.76;46.00;98257.28;1805174;77;21180;-60
2021/04/06 07:23:49;;;;;;;3.37;2.47;;;;;;;9.85;45.69;98262.88;1771108;79;21186;-60
2021/04/06 07:26:19;;;;;;;6.57;4.17;;;;;;;9.97;45.27;98261.16;1807507;77;21504;-59
2021/04/06 07:28:47;;;;;;;7.87;3.83;;;;;;;10.08;44.93;98268.00;1802549;77;22246;-59
2021/04/06 07:31:15;;;;;;;4.63;3.40;;;;;;;10.16;45.12;98266.98;1803073;77;21202;-59
2021/04/06 07:33:45;;;;;;;6.77;4.47;;;;;;;10.20;44.95;98263.16;1773546;78;21202;-59
2021/04/06 07:36:18;;;;;;;5.23;4.70;;;;;;;10.26;44.61;98267.23;1780400;78;21120;-59
2021/04/06 07:38:52;;;;;;;3.93;2.60;;;;;;;10.27;44.66;98264.92;1805324;77;21186;-60
2021/04/06 07:41:23;;;;;;;7.87;3.37;;;;;;;10.31;44.38;98267.75;1801631;77;21309;-59
2021/04/06 07:43:55;;;;;;;5.10;2.43;;;;;;;10.34;44.11;98266.20;1806533;77;21157;-59
2021/04/06 07:46:37;;;;;;;4.90;3.37;;;;;;;10.37;44.02;98267.83;1802739;77;21202;-59
2021/04/06 07:49:20;;;;;;;3.87;3.17;;;;;;;10.37;43.64;98257.07;1800668;77;21230;-58
2021/04/06 07:51:53;;;;;;;3.87;2.50;;;;;;;10.40;43.35;98257.69;1795878;77;21210;-60
2021/04/06 07:54:22;;;;;;;4.00;2.70;;;;;;;10.42;43.24;98262.97;1769990;79;21185;-60
2021/04/06 07:56:58;;;;;;;4.57;2.60;;;;;;;10.45;42.80;98260.08;1795717;77;21501;-58
2021/04/06 07:59:31;;;;;;;4.17;2.93;;;;;;;10.47;42.75;98272.91;1766315;80;21166;-59
2021/04/06 08:02:07;;;;;;;4.53;2.40;;;;;;;10.49;42.69;98275.01;1777402;79;21123;-59
2021/04/06 08:04:49;;;;;;;3.50;2.57;;;;;;;10.52;42.43;98280.19;1799142;77;21171;-60
2021/04/06 08:07:24;;;;;;;5.97;2.60;;;;;;;10.56;42.44;98274.94;1766513;80;22182;-59
2021/04/06 08:09:59;;;;;;;7.43;3.00;;;;;;;10.57;42.91;98276.19;1778838;78;21098;-60
2021/04/06 08:12:33;;;;;;;4.03;2.20;;;;;;;10.67;42.90;98276.88;1779971;78;21173;-59
2021/04/06 08:15:16;;;;;;;4.60;2.85;;;;;;;10.77;42.00;98277.94;1797907;77;21115;-61
2021/04/06 08:17:51;;;;;;;4.78;2.60;;;;;;;10.89;41.79;98274.34;1767312;78;21678;-58
2021/04/06 08:20:37;;;;;;;3.35;2.00;;;;;;;10.96;41.20;98275.16;1794220;78;26718;-58
2021/04/06 08:23:14;;;;;;;4.03;1.98;;;;;;;11.00;40.82;98269.90;1764259;80;22199;-58
2021/04/06 08:25:46;;;;;;;7.22;3.22;;;;;;;11.11;41.18;98266.91;1768406;79;21023;-59
2021/04/06 08:28:37;;;;;;;6.28;2.85;;;;;;;11.21;40.94;98267.47;1775749;79;21204;-59
2021/04/06 08:31:27;;;;;;;5.10;2.50;;;;;;;11.31;40.24;98271.69;1762461;79;21159;-59
2021/04/06 08:34:26;;;;;;;11.15;2.20;;;;;;;11.42;39.89;98273.56;1794118;78;21239;-57
2021/04/06 08:37:08;;;;;;;13.15;2.72;;;;;;;11.53;39.77;98267.75;1791959;77;21584;-58
2021/04/06 08:39:36;;;;;;;5.70;2.70;;;;;;;11.67;39.12;98261.30;1798215;77;21149;-60
2021/04/06 08:42:05;;;;;;;7.55;3.15;;;;;;;11.78;39.24;98264.56;1792260;78;21200;-58
2021/04/06 08:44:34;;;;;;;4.22;1.95;;;;;;;11.89;39.18;98260.08;1795550;78;21219;-57
2021/04/06 08:47:02;;;;;;;4.65;2.85;;;;;;;12.01;39.66;98255.06;1795177;77;21539;-58
2021/04/06 08:49:29;;;;;;;3.50;2.08;;;;;;;12.14;39.30;98242.84;1798980;77;21363;-58
2021/04/06 08:52:01;;;;;;;2.45;2.25;;;;;;;12.25;38.83;98246.06;1795526;77;21201;-59
2021/04/06 08:57:10;;;;;;;11.53;2.90;;;;;;;12.40;37.99;98247.54;1857704;74;23221;-58
2021/04/06 08:59:39;;;;;;;5.95;1.95;;;;;;;12.41;37.53;98243.38;1825478;76;21154;-58
2021/04/06 09:02:15;;;;;;;5.55;1.92;;;;;;;12.49;36.96;98246.81;1825394;76;21446;-59
2021/04/06 09:04:48;;;;;;;4.37;1.75;;;;;;;12.56;36.38;98240.42;1824951;76;21079;-59
2021/04/06 09:07:22;;;;;;;10.68;2.35;;;;;;;12.62;36.64;98240.78;1828386;76;20972;-59
2021/04/06 09:10:00;;;;;;;4.25;1.70;;;;;;;12.71;36.75;98235.99;1825643;76;20981;-60
2021/04/06 09:12:27;;;;;;;3.33;2.02;;;;;;;12.81;36.85;98226.17;1831532;76;21719;-59
2021/04/06 09:14:55;;;;;;;4.45;1.15;;;;;;;12.92;36.36;98219.91;1826242;76;21368;-59
2021/04/06 09:17:31;;;;;;;1.07;0.80;;;;;;;13.03;34.72;98217.64;1827673;76;21005;-60
2021/04/06 09:20:01;;;;;;;1.25;0.90;;;;;;;13.12;34.17;98223.16;1822011;76;21258;-60
2021/04/06 09:22:29;;;;;;;3.37;1.30;;;;;;;13.22;34.08;98219.23;1799219;76;21071;-59
2021/04/06 09:24:56;;;;;;;4.47;1.87;;;;;;;13.30;34.26;98222.16;1781435;76;21421;-60
2021/04/06 09:27:23;;;;;;;2.70;1.92;;;;;;;13.38;34.76;98214.27;1827375;76;21441;-60
2021/04/06 09:29:51;;;;;;;3.37;1.87;;;;;;;13.47;35.06;98218.89;1825993;76;21149;-60
2021/04/06 09:32:20;;;;;;;8.43;2.42;;;;;;;13.57;35.10;98219.84;1789238;77;21152;-59
2021/04/06 09:34:49;;;;;;;1.62;1.52;;;;;;;13.65;34.58;98223.25;1757646;80;21849;-60
2021/04/06 09:37:21;;;;;;;2.92;2.05;;;;;;;13.72;34.05;98216.81;1757937;80;21471;-60
2021/04/06 09:39:57;;;;;;;2.00;1.50;;;;;;;13.79;34.39;98213.95;1759655;80;21398;-60
2021/04/06 09:42:25;;;;;;;2.75;1.32;;;;;;;13.88;34.40;98221.27;1754015;79;21138;-59
2021/04/06 09:44:53;;;;;;;5.47;2.02;;;;;;;13.96;34.22;98218.27;1739806;80;21458;-61
2021/04/06 09:47:22;;;;;;;4.90;1.62;;;;;;;14.04;33.87;98214.91;1740383;81;21135;-59
2021/04/06 09:49:52;;;;;;;1.70;1.20;;;;;;;14.11;33.32;98223.38;1770137;79;21086;-59
2021/04/06 09:52:27;;;;;;;6.90;1.32;;;;;;;14.14;32.50;98210.91;1771472;79;21398;-58
2021/04/06 09:54:59;;;;;;;2.75;1.72;;;;;;;14.15;32.34;98209.92;1743059;80;21114;-60
2021/04/06 09:57:38;;;;;;;1.87;1.37;;;;;;;14.14;33.15;98205.00;1741046;80;20993;-60
2021/04/06 10:00:12;;;;;;;2.85;1.62;;;;;;;14.15;33.08;98209.42;1739390;80;21106;-60
2021/04/06 10:02:42;;;;;;;3.25;1.60;;;;;;;14.15;32.94;98206.72;1768995;79;21511;-59
2021/04/06 10:05:20;;;;;;;1.67;1.20;;;;;;;14.17;33.31;98206.59;1752698;80;22057;-60
2021/04/06 10:07:49;;;;;;;2.85;1.40;;;;;;;14.20;33.21;98203.63;1733795;79;21228;-60
2021/04/06 10:10:23;;;;;;;4.28;2.05;;;;;;;14.24;33.42;98203.70;1737900;81;21790;-60
2021/04/06 10:12:51;;;;;;;5.33;1.42;;;;;;;14.23;33.05;98201.50;1739254;81;21067;-60
2021/04/06 10:15:24;;;;;;;2.60;1.40;;;;;;;14.22;32.77;98207.03;1739120;81;21179;-61
2021/04/06 10:17:53;;;;;;;9.30;1.47;;;;;;;14.19;32.70;98200.56;1738070;81;21764;-60
2021/04/06 10:20:28;;;;;;;9.30;1.47;;;;;;;14.17;32.23;98198.48;1768031;79;21131;-61
2021/04/06 10:22:57;;;;;;;1.62;1.32;;;;;;;14.15;32.57;98197.75;1768622;79;21555;-61
2021/04/06 10:25:28;;;;;;;2.72;1.40;;;;;;;14.14;32.35;98196.02;1764747;79;21115;-61
2021/04/06 10:27:59;;;;;;;3.47;1.92;;;;;;;14.12;32.71;98180.45;1765655;79;21212;-60
2021/04/06 10:30:41;;;;;;;3.08;1.60;;;;;;;14.10;32.71;98194.10;1762850;79;21465;-59
2021/04/06 10:33:20;;;;;;;2.17;1.37;;;;;;;14.10;33.11;98183.77;1768266;79;21098;-61
2021/04/06 10:35:55;;;;;;;3.10;1.27;;;;;;;14.16;33.20;98185.94;1767990;79;21220;-60
2021/04/06 10:38:26;;;;;;;2.10;1.72;;;;;;;14.22;33.32;98182.68;1760447;80;21639;-58
2021/04/06 10:41:05;;;;;;;3.42;1.70;;;;;;;14.26;33.13;98179.59;1764287;80;21208;-58
2021/04/06 10:43:38;;;;;;;2.85;1.70;;;;;;;14.27;32.98;98184.50;1766274;79;22367;-58
2021/04/06 10:46:13;;;;;;;3.75;1.40;;;;;;;14.21;32.60;98176.41;1764610;79;21134;-60
2021/04/06 10:48:44;;;;;;;;;;;;;;;14.18;32.92;98190.23;1769305;79;22205;-60
2021/04/06 10:51:19;;;;;;;2.67;1.10;;;;;;;14.12;32.87;98182.62;1765666;79;20287;-60
2021/04/06 10:53:49;;;;;;;2.52;1.50;;;;;;;14.07;32.89;98184.03;1767073;79;21247;-60
2021/04/06 10:56:32;;;;;;;3.67;1.60;;;;;;;14.02;32.97;98179.03;1763538;79;21178;-60
2021/04/06 10:59:04;;;;;;;3.30;1.62;;;;;;;13.98;33.28;98177.08;1765693;80;21196;-60
2021/04/06 11:01:48;;;;;;;4.60;1.55;;;;;;;13.96;33.11;98170.08;1767111;79;21204;-60
2021/04/06 11:04:21;;;;;;;2.15;1.30;;;;;;;13.96;33.05;98172.28;1768221;79;21697;-59
2021/04/06 11:06:58;;;;;;;3.75;1.60;;;;;;;13.98;33.59;98175.72;1766156;79;21557;-60
2021/04/06 11:09:36;;;;;;;3.65;1.20;;;;;;;14.04;33.03;98172.97;1766606;79;21427;-60
2021/04/06 11:12:05;;;;;;;1.30;1.05;;;;;;;14.07;32.99;98171.86;1763664;79;21124;-60
2021/04/06 11:14:32;;;;;;;5.10;2.67;;;;;;;14.11;32.69;98170.61;1766422;79;21110;-60
2021/04/06 11:17:05;;;;;;;5.37;1.80;;;;;;;14.12;32.74;98171.80;1766437;79;21227;-60
2021/04/06 11:19:34;;;;;;;2.37;1.40;;;;;;;14.12;32.36;98174.51;1739302;81;21254;-59
2021/04/06 11:22:05;;;;;;;1.60;1.40;;;;;;;14.10;32.12;98172.95;1738044;80;22136;-60
2021/04/06 11:24:32;;;;;;;3.15;1.25;;;;;;;14.04;32.15;98170.27;1764866;79;21344;-60
2021/04/06 11:27:01;;;;;;;3.50;1.10;;;;;;;13.99;32.38;98163.06;1764941;79;21173;-60
2021/04/06 11:29:31;;;;;;;2.33;1.00;;;;;;;13.98;32.13;98158.14;1714122;81;21653;-59
2021/04/06 11:32:04;;;;;;;3.35;1.32;;;;;;;13.95;31.99;98154.86;1762269;79;21482;-59
2021/04/06 11:34:34;;;;;;;3.47;1.80;;;;;;;13.91;32.01;98161.02;1739565;80;22248;-62
2021/04/06 11:37:02;;;;;;;2.10;1.95;;;;;;;13.87;32.35;98155.50;1761091;79;21537;-60
2021/04/06 11:39:34;;;;;;;5.45;1.80;;;;;;;13.87;32.42;98150.09;1765677;79;21113;-61
2021/04/06 11:42:03;;;;;;;2.92;1.22;;;;;;;13.86;32.73;98151.11;1765424;79;21204;-60
2021/04/06 11:44:31;;;;;;;3.27;1.50;;;;;;;13.81;33.00;98149.28;1771582;80;21205;-61
2021/04/06 11:46:59;;;;;;;2.65;1.20;;;;;;;13.75;32.84;98141.71;1765969;79;22095;-61
2021/04/06 11:49:27;;;;;;;3.25;1.30;;;;;;;13.71;32.72;98139.38;1738984;80;21193;-61
2021/04/06 11:51:54;;;;;;;2.02;1.30;;;;;;;13.70;33.28;98150.69;1740232;80;21114;-61
2021/04/06 11:54:23;;;;;;;3.22;1.35;;;;;;;13.68;33.12;98142.38;1739821;80;21070;-61
2021/04/06 11:56:54;;;;;;;19.70;1.40;;;;;;;13.67;32.84;98140.66;1738508;80;21666;-61
2021/04/06 11:59:22;;;;;;;1.60;1.20;;;;;;;13.68;32.50;98138.32;1737512;81;21610;-61
2021/04/06 12:01:50;;;;;;;2.87;1.07;;;;;;;13.71;32.30;98140.73;1741444;80;21171;-58
2021/04/06 12:04:17;;;;;;;1.75;1.30;;;;;;;13.70;32.46;98139.88;1737129;80;21470;-62
2021/04/06 12:06:45;;;;;;;3.58;1.30;;;;;;;13.68;32.48;98135.61;1741379;80;21135;-61